LFKJ Airport Information

Runway Information
Runway 02 Length 7897 ft width 148 ft
Elevation 15 ft Threshold 0 ft Heading 25
Runway 20 Length 7897 ft Width 148 ft
Elevation 18 ft Threshold 744 ft Heading 205
Airport Frequencies
Type AFIS Name AFIS Frequency 119.825 MHZ
Type APP Name AJACCIO AP Frequency 121.05 MHZ
Type ATIS Name AJACCIO AT Frequency 126.925 MHZ
Type GND Name AJACCIO GN Frequency 121.7 MHZ
Type TWR Name AJACCIO TW Frequency 118.075 MHZ
Airport Navaids
Type NDB Name Ajaccio/Campo Dell Oro Frequency 341 KHZ
Airport Weather Information & NOTAM
ADDS - METARS form results

(1755 UTC 17 October 2018)
Data provider http://aviationweather.gov/metar/data/
 
METAR text: LFKJ 171730Z AUTO 11003KT 9999 ///TCU 20/17 Q1012 BECMG FEW030 SCT090
Conditions at: LFKJ (AJACCIO/CAMPO OR, FR) observed 1730 UTC 17 October 2018
Temperature: 20.0°C (68°F)
Dewpoint: 17.0°C (63°F) [RH = 83%]
Pressure (altimeter): 29.88 inches Hg (1012.0 mb)
Winds: from the ESE (110 degrees) at 3 MPH (3 knots; 1.5 m/s)
Visibility: 6 or more miles (10+ km)
Ceiling: unknown
Clouds: missing
Weather: no significant weather observed at this time

METAR text: LFKJ 171700Z AUTO 17003KT 9999 2800 NSC 21/17 Q1012 NOSIG
Conditions at: LFKJ (AJACCIO/CAMPO OR, FR) observed 1700 UTC 17 October 2018
Temperature: 21.0°C (70°F)
Dewpoint: 17.0°C (63°F) [RH = 78%]
Pressure (altimeter): 29.88 inches Hg (1012.0 mb)
Winds: from the S (170 degrees) at 3 MPH (3 knots; 1.5 m/s)
Visibility: 6 or more miles (10+ km)
Ceiling: at least 12,000 feet AGL
Clouds: sky clear below 12,000 feet AGL
Weather: no significant weather observed at this time

Forecast for: LFKJ (AJACCIO/CAMPO OR, FR)
Text: TAF LFKJ 171400Z 1715/1815 05005KT 9999 FEW040 BKN100
Forecast period: 1500 to 1800 UTC 17 October 2018
Forecast type: FROM: standard forecast or significant change
Winds: from the NE (50 degrees) at 6 MPH (5 knots; 2.6 m/s)
Visibility: 6 or more miles 10+ km)
Ceiling: 10000 feet AGL
Clouds: few clouds at 4000 feet AGL
broken clouds at 10000 feet AGL
Weather: no significant weather forecast for this period
Text: BECMG 1718/1720 FEW030 SCT090
Forecast period: 1800 UTC 17 October 2018 to 0900 UTC 18 October 2018
Forecast type: BECOMING: Conditions expected to become as follows by 2000 UTC 17 October 2018
Winds: from the NE (50 degrees) at 6 MPH (5 knots; 2.6 m/s)
Visibility: 6 or more miles 10+ km)
Ceiling: at least 12,000 feet AGL
Clouds: few clouds at 3000 feet AGL
scattered clouds at 9000 feet AGL
Weather: no significant weather forecast for this period
Text: BECMG 1809/1811 23008KT
Forecast period: 0900 to 1500 UTC 18 October 2018
Forecast type: BECOMING: Conditions expected to become as follows by 1100 UTC 18 October 2018
Winds: from the SW (230 degrees) at 9 MPH (8 knots; 4.1 m/s)
Visibility: 6 or more miles 10+ km)
Ceiling: at least 12,000 feet AGL
Clouds: few clouds at 3000 feet AGL
scattered clouds at 9000 feet AGL
Weather: no significant weather forecast for this period